QTR4CF OMDB-OTHH
Flight info
| Callsign | QTR4CF |
|---|---|
| Flight time | 0h 51m |
| Altitude | 22000 |
| Route | NABIX P699 OXARI M430 TOSNA |
| Aircraft | A359/H-SDE2E3GHIJ3J4J5LM1ORWXY/LB1D1 |
Departure
| Time | 2026-05-05 13:14 |
|---|---|
| Airport | Dubai International Airport (OMDB) |
Arrival
| Time | 2026-05-05 14:06 |
|---|---|
| Airport | Hamad International Airport (OTHH) |
| Time | Latitude | Longitude | Altitude | Speed | Heading |
|---|---|---|---|---|---|
| 2026-05-05 12:43 | 25.24128 | 55.37406 | 46 ft | 0 kts | 31° |
| 2026-05-05 13:00 | 25.24119 | 55.37400 | 49 ft | 0 kts | 34° |
| 2026-05-05 13:01 | 25.24118 | 55.37399 | 46 ft | 0 kts | 33° |
| 2026-05-05 13:02 | 25.24115 | 55.37396 | 43 ft | 2 kts | 34° |
| 2026-05-05 13:02 | 25.24106 | 55.37390 | 49 ft | 1 kts | 34° |
| 2026-05-05 13:03 | 25.24101 | 55.37386 | 45 ft | 0 kts | 34° |
| 2026-05-05 13:03 | 25.24090 | 55.37378 | 42 ft | 2 kts | 34° |
| 2026-05-05 13:03 | 25.24078 | 55.37367 | 43 ft | 2 kts | 53° |
| 2026-05-05 13:04 | 25.24069 | 55.37352 | 42 ft | 2 kts | 71° |
| 2026-05-05 13:04 | 25.24065 | 55.37332 | 43 ft | 3 kts | 81° |
| 2026-05-05 13:04 | 25.24064 | 55.37310 | 45 ft | 1 kts | 93° |
| 2026-05-05 13:04 | 25.24066 | 55.37300 | 43 ft | 1 kts | 103° |
| 2026-05-05 13:05 | 25.24068 | 55.37289 | 42 ft | 1 kts | 112° |
| 2026-05-05 13:05 | 25.24070 | 55.37285 | 43 ft | 0 kts | 118° |
| 2026-05-05 13:07 | 25.24065 | 55.37294 | 45 ft | 4 kts | 117° |
| 2026-05-05 13:08 | 25.24043 | 55.37342 | 46 ft | 9 kts | 121° |
| 2026-05-05 13:08 | 25.24005 | 55.37400 | 47 ft | 11 kts | 121° |
| 2026-05-05 13:08 | 25.23983 | 55.37450 | 48 ft | 8 kts | 111° |
| 2026-05-05 13:08 | 25.23973 | 55.37518 | 49 ft | 10 kts | 80° |
| 2026-05-05 13:09 | 25.24012 | 55.37593 | 49 ft | 13 kts | 45° |
| 2026-05-05 13:09 | 25.24083 | 55.37631 | 49 ft | 0 kts | 11° |
| 2026-05-05 13:09 | 25.24085 | 55.37632 | 49 ft | 0 kts | 12° |
| 2026-05-05 13:09 | 25.24094 | 55.37637 | 49 ft | 4 kts | 27° |
| 2026-05-05 13:10 | 25.24129 | 55.37672 | 49 ft | 9 kts | 42° |
| 2026-05-05 13:10 | 25.24188 | 55.37727 | 50 ft | 13 kts | 33° |
| 2026-05-05 13:10 | 25.24273 | 55.37777 | 49 ft | 15 kts | 30° |
| 2026-05-05 13:10 | 25.24373 | 55.37846 | 49 ft | 19 kts | 33° |
| 2026-05-05 13:11 | 25.24486 | 55.37930 | 50 ft | 10 kts | 34° |
| 2026-05-05 13:11 | 25.24491 | 55.37933 | 50 ft | 2 kts | 34° |
| 2026-05-05 13:11 | 25.24516 | 55.37953 | 48 ft | 7 kts | 37° |
| 2026-05-05 13:11 | 25.24568 | 55.37994 | 50 ft | 11 kts | 34° |
| 2026-05-05 13:12 | 25.24646 | 55.38052 | 50 ft | 15 kts | 32° |
| 2026-05-05 13:12 | 25.24728 | 55.38105 | 50 ft | 0 kts | 30° |
| 2026-05-05 13:12 | 25.24736 | 55.38109 | 50 ft | 3 kts | 25° |
| 2026-05-05 13:12 | 25.24766 | 55.38104 | 49 ft | 6 kts | 332° |
| 2026-05-05 13:13 | 25.24795 | 55.38061 | 46 ft | 8 kts | 298° |
| 2026-05-05 13:13 | 25.24808 | 55.38037 | 48 ft | 0 kts | 301° |
| 2026-05-05 13:14 | 25.24811 | 55.38031 | 48 ft | 7 kts | 301° |
| 2026-05-05 13:14 | 25.25011 | 55.37669 | 40 ft | 115 kts | 301° |
| 2026-05-05 13:14 | 25.25607 | 55.36591 | 168 ft | 206 kts | 303° |
| 2026-05-05 13:14 | 25.26408 | 55.35125 | 1033 ft | 236 kts | 303° |
| 2026-05-05 13:15 | 25.27340 | 55.33455 | 1980 ft | 267 kts | 303° |
| 2026-05-05 13:15 | 25.28330 | 55.31664 | 2669 ft | 282 kts | 303° |
| 2026-05-05 13:15 | 25.29345 | 55.29766 | 3295 ft | 287 kts | 301° |
| 2026-05-05 13:15 | 25.30332 | 55.27884 | 3874 ft | 281 kts | 300° |
| 2026-05-05 13:16 | 25.30806 | 55.25886 | 4227 ft | 263 kts | 268° |
| 2026-05-05 13:16 | 25.30245 | 55.24053 | 4743 ft | 256 kts | 232° |
| 2026-05-05 13:16 | 25.28925 | 55.22801 | 5606 ft | 249 kts | 213° |
| 2026-05-05 13:16 | 25.27552 | 55.21628 | 6417 ft | 249 kts | 219° |
| 2026-05-05 13:17 | 25.26354 | 55.20233 | 7141 ft | 252 kts | 229° |
| 2026-05-05 13:17 | 25.25324 | 55.18651 | 7846 ft | 256 kts | 236° |
| 2026-05-05 13:17 | 25.24425 | 55.16937 | 8552 ft | 259 kts | 244° |
| 2026-05-05 13:17 | 25.23880 | 55.15012 | 9128 ft | 270 kts | 257° |
| 2026-05-05 13:18 | 25.23531 | 55.12902 | 9491 ft | 288 kts | 260° |
| 2026-05-05 13:18 | 25.23224 | 55.10679 | 9969 ft | 299 kts | 261° |
| 2026-05-05 13:18 | 25.22953 | 55.08671 | 10245 ft | 313 kts | 261° |
| 2026-05-05 13:18 | 25.22629 | 55.06267 | 10519 ft | 328 kts | 261° |
| 2026-05-05 13:19 | 25.22282 | 55.03715 | 10783 ft | 343 kts | 261° |
| 2026-05-05 13:19 | 25.21924 | 55.01075 | 11155 ft | 352 kts | 261° |
| 2026-05-05 13:19 | 25.21558 | 54.98389 | 11646 ft | 356 kts | 261° |
| 2026-05-05 13:19 | 25.21186 | 54.95672 | 12185 ft | 359 kts | 261° |
| 2026-05-05 13:20 | 25.20847 | 54.92940 | 12702 ft | 361 kts | 264° |
| 2026-05-05 13:20 | 25.20653 | 54.90170 | 13234 ft | 364 kts | 266° |
| 2026-05-05 13:20 | 25.20485 | 54.87371 | 13735 ft | 366 kts | 266° |
| 2026-05-05 13:20 | 25.20311 | 54.84600 | 14214 ft | 368 kts | 266° |
| 2026-05-05 13:21 | 25.20127 | 54.81785 | 14705 ft | 369 kts | 266° |
| 2026-05-05 13:21 | 25.19938 | 54.78950 | 15205 ft | 371 kts | 266° |
| 2026-05-05 13:21 | 25.19820 | 54.76105 | 15690 ft | 372 kts | 271° |
| 2026-05-05 13:21 | 25.19927 | 54.73246 | 16199 ft | 373 kts | 274° |
| 2026-05-05 13:22 | 25.20095 | 54.70379 | 16695 ft | 375 kts | 274° |
| 2026-05-05 13:22 | 25.20270 | 54.67498 | 17179 ft | 377 kts | 274° |
| 2026-05-05 13:22 | 25.20443 | 54.64602 | 17663 ft | 379 kts | 274° |
| 2026-05-05 13:22 | 25.20614 | 54.61679 | 18118 ft | 382 kts | 274° |
| 2026-05-05 13:23 | 25.20785 | 54.58747 | 18524 ft | 384 kts | 274° |
| 2026-05-05 13:23 | 25.20953 | 54.55833 | 18928 ft | 386 kts | 274° |
| 2026-05-05 13:23 | 25.21221 | 54.52873 | 19324 ft | 388 kts | 279° |
| 2026-05-05 13:23 | 25.21756 | 54.49941 | 19726 ft | 391 kts | 283° |
| 2026-05-05 13:24 | 25.22436 | 54.47031 | 20149 ft | 393 kts | 285° |
| 2026-05-05 13:24 | 25.23189 | 54.44129 | 20566 ft | 394 kts | 286° |
| 2026-05-05 13:24 | 25.23969 | 54.41213 | 20985 ft | 396 kts | 286° |
| 2026-05-05 13:24 | 25.24748 | 54.38292 | 21408 ft | 398 kts | 286° |
| 2026-05-05 13:25 | 25.25151 | 54.36764 | 21593 ft | 399 kts | 286° |
| 2026-05-05 13:25 | 25.25170 | 54.36691 | 21599 ft | 399 kts | 286° |
| 2026-05-05 13:25 | 25.25892 | 54.33760 | 21743 ft | 398 kts | 284° |
| 2026-05-05 13:25 | 25.26621 | 54.30743 | 21754 ft | 410 kts | 285° |
| 2026-05-05 13:26 | 25.27396 | 54.27697 | 21749 ft | 414 kts | 286° |
| 2026-05-05 13:26 | 25.28187 | 54.24640 | 21754 ft | 415 kts | 286° |
| 2026-05-05 13:26 | 25.28979 | 54.21569 | 21749 ft | 415 kts | 285° |
| 2026-05-05 13:26 | 25.29762 | 54.18499 | 21750 ft | 415 kts | 285° |
| 2026-05-05 13:27 | 25.30534 | 54.15429 | 21752 ft | 415 kts | 285° |
| 2026-05-05 13:27 | 25.31289 | 54.12394 | 21753 ft | 415 kts | 285° |
| 2026-05-05 13:27 | 25.32006 | 54.09306 | 21753 ft | 415 kts | 284° |
| 2026-05-05 13:27 | 25.32672 | 54.06202 | 21751 ft | 415 kts | 283° |
| 2026-05-05 13:28 | 25.33311 | 54.03092 | 21754 ft | 415 kts | 282° |
| 2026-05-05 13:28 | 25.33939 | 53.99979 | 21752 ft | 415 kts | 282° |
| 2026-05-05 13:28 | 25.34568 | 53.96871 | 21751 ft | 415 kts | 282° |
| 2026-05-05 13:28 | 25.35205 | 53.93761 | 21754 ft | 415 kts | 283° |
| 2026-05-05 13:29 | 25.35850 | 53.90653 | 21751 ft | 415 kts | 283° |
| 2026-05-05 13:29 | 25.36499 | 53.87552 | 21753 ft | 415 kts | 283° |
| 2026-05-05 13:29 | 25.37152 | 53.84446 | 21753 ft | 415 kts | 283° |
| 2026-05-05 13:29 | 25.37803 | 53.81378 | 21761 ft | 415 kts | 283° |
| 2026-05-05 13:30 | 25.38457 | 53.78277 | 21756 ft | 415 kts | 283° |
| 2026-05-05 13:30 | 25.39109 | 53.75172 | 21757 ft | 414 kts | 283° |
| 2026-05-05 13:30 | 25.39761 | 53.72062 | 21754 ft | 414 kts | 283° |
| 2026-05-05 13:30 | 25.40410 | 53.68964 | 21758 ft | 414 kts | 283° |
| 2026-05-05 13:31 | 25.41060 | 53.65859 | 21758 ft | 414 kts | 283° |
| 2026-05-05 13:31 | 25.41709 | 53.62755 | 21756 ft | 414 kts | 283° |
| 2026-05-05 13:31 | 25.42196 | 53.59619 | 21756 ft | 414 kts | 275° |
| 2026-05-05 13:31 | 25.42147 | 53.56439 | 21757 ft | 414 kts | 264° |
| 2026-05-05 13:32 | 25.41759 | 53.53321 | 21754 ft | 414 kts | 261° |
| 2026-05-05 13:32 | 25.41211 | 53.50190 | 21755 ft | 415 kts | 258° |
| 2026-05-05 13:32 | 25.40581 | 53.47078 | 21754 ft | 415 kts | 257° |
| 2026-05-05 13:32 | 25.39919 | 53.43981 | 21755 ft | 415 kts | 257° |
| 2026-05-05 13:33 | 25.39247 | 53.40882 | 21757 ft | 415 kts | 257° |
| 2026-05-05 13:33 | 25.38580 | 53.37774 | 21755 ft | 415 kts | 257° |
| 2026-05-05 13:33 | 25.37938 | 53.34675 | 21755 ft | 414 kts | 258° |
| 2026-05-05 13:33 | 25.37363 | 53.31545 | 21757 ft | 414 kts | 259° |
| 2026-05-05 13:34 | 25.36847 | 53.28458 | 21760 ft | 414 kts | 260° |
| 2026-05-05 13:34 | 25.36346 | 53.25317 | 21758 ft | 414 kts | 260° |
| 2026-05-05 13:34 | 25.35857 | 53.22181 | 21759 ft | 414 kts | 261° |
| 2026-05-05 13:34 | 25.35367 | 53.19049 | 21757 ft | 414 kts | 261° |
| 2026-05-05 13:35 | 25.34867 | 53.15906 | 21758 ft | 414 kts | 260° |
| 2026-05-05 13:35 | 25.34364 | 53.12778 | 21756 ft | 414 kts | 260° |
| 2026-05-05 13:35 | 25.33852 | 53.09641 | 21760 ft | 414 kts | 260° |
| 2026-05-05 13:35 | 25.33333 | 53.06507 | 21758 ft | 414 kts | 260° |
| 2026-05-05 13:36 | 25.32989 | 53.04438 | 21757 ft | 414 kts | 260° |
| 2026-05-05 13:36 | 25.32298 | 53.00296 | 21758 ft | 414 kts | 260° |
| 2026-05-05 13:36 | 25.31776 | 52.97170 | 21758 ft | 413 kts | 260° |
| 2026-05-05 13:36 | 25.31254 | 52.94035 | 21651 ft | 421 kts | 260° |
| 2026-05-05 13:37 | 25.30713 | 52.90806 | 21560 ft | 433 kts | 260° |
| 2026-05-05 13:37 | 25.30161 | 52.87523 | 21315 ft | 433 kts | 260° |
| 2026-05-05 13:37 | 25.29611 | 52.84258 | 21064 ft | 433 kts | 260° |
| 2026-05-05 13:37 | 25.29248 | 52.82102 | 20915 ft | 424 kts | 260° |
| 2026-05-05 13:38 | 25.28721 | 52.78976 | 20671 ft | 407 kts | 260° |
| 2026-05-05 13:38 | 25.28212 | 52.75960 | 20418 ft | 392 kts | 260° |
| 2026-05-05 13:38 | 25.27561 | 52.72112 | 19877 ft | 380 kts | 259° |
| 2026-05-05 13:38 | 25.26892 | 52.69245 | 19259 ft | 397 kts | 250° |
| 2026-05-05 13:39 | 25.25612 | 52.66460 | 18996 ft | 416 kts | 239° |
| 2026-05-05 13:39 | 25.24009 | 52.63775 | 18761 ft | 420 kts | 237° |
| 2026-05-05 13:39 | 25.22353 | 52.61112 | 18542 ft | 420 kts | 236° |
| 2026-05-05 13:39 | 25.21266 | 52.59369 | 18379 ft | 412 kts | 236° |
| 2026-05-05 13:40 | 25.19679 | 52.56817 | 18151 ft | 395 kts | 237° |
| 2026-05-05 13:40 | 25.18157 | 52.54359 | 17865 ft | 380 kts | 237° |
| 2026-05-05 13:40 | 25.16227 | 52.51233 | 17416 ft | 365 kts | 237° |
| 2026-05-05 13:40 | 25.14812 | 52.48955 | 17066 ft | 355 kts | 237° |
| 2026-05-05 13:41 | 25.13429 | 52.46730 | 16712 ft | 347 kts | 237° |
| 2026-05-05 13:41 | 25.12496 | 52.45314 | 16480 ft | 342 kts | 233° |
| 2026-05-05 13:41 | 25.10862 | 52.43441 | 16140 ft | 337 kts | 222° |
| 2026-05-05 13:41 | 25.09033 | 52.41861 | 15820 ft | 330 kts | 219° |
| 2026-05-05 13:42 | 25.07194 | 52.40371 | 15514 ft | 327 kts | 218° |
| 2026-05-05 13:42 | 25.05356 | 52.38895 | 15202 ft | 326 kts | 218° |
| 2026-05-05 13:42 | 25.03525 | 52.37421 | 14889 ft | 326 kts | 218° |
| 2026-05-05 13:42 | 25.01693 | 52.35946 | 14592 ft | 326 kts | 218° |
| 2026-05-05 13:43 | 24.99863 | 52.34472 | 14289 ft | 326 kts | 218° |
| 2026-05-05 13:43 | 24.98034 | 52.32998 | 14030 ft | 326 kts | 218° |
| 2026-05-05 13:43 | 24.96229 | 52.31544 | 13779 ft | 326 kts | 218° |
| 2026-05-05 13:43 | 24.94400 | 52.30070 | 13539 ft | 325 kts | 218° |
| 2026-05-05 13:44 | 24.92576 | 52.28601 | 13245 ft | 325 kts | 219° |
| 2026-05-05 13:44 | 24.90862 | 52.27008 | 12961 ft | 321 kts | 230° |
| 2026-05-05 13:44 | 24.89742 | 52.24932 | 12686 ft | 313 kts | 255° |
| 2026-05-05 13:44 | 24.89353 | 52.22599 | 12422 ft | 308 kts | 266° |
| 2026-05-05 13:45 | 24.89179 | 52.20255 | 12150 ft | 306 kts | 268° |
| 2026-05-05 13:45 | 24.89030 | 52.17922 | 11884 ft | 305 kts | 268° |
| 2026-05-05 13:45 | 24.88879 | 52.15631 | 11620 ft | 303 kts | 268° |
| 2026-05-05 13:45 | 24.88719 | 52.13319 | 11360 ft | 302 kts | 268° |
| 2026-05-05 13:46 | 24.88593 | 52.11024 | 11104 ft | 299 kts | 273° |
| 2026-05-05 13:46 | 24.88949 | 52.08799 | 11007 ft | 294 kts | 293° |
| 2026-05-05 13:46 | 24.90034 | 52.06934 | 11007 ft | 290 kts | 315° |
| 2026-05-05 13:46 | 24.91686 | 52.05691 | 11004 ft | 288 kts | 334° |
| 2026-05-05 13:47 | 24.93536 | 52.04842 | 11003 ft | 288 kts | 338° |
| 2026-05-05 13:47 | 24.95410 | 52.04056 | 10999 ft | 288 kts | 339° |
| 2026-05-05 13:47 | 24.97283 | 52.03267 | 11004 ft | 288 kts | 338° |
| 2026-05-05 13:47 | 24.99127 | 52.02480 | 11001 ft | 288 kts | 338° |
| 2026-05-05 13:48 | 25.00995 | 52.01676 | 11005 ft | 288 kts | 338° |
| 2026-05-05 13:48 | 25.02867 | 52.00864 | 11003 ft | 288 kts | 338° |
| 2026-05-05 13:48 | 25.04730 | 52.00055 | 10733 ft | 289 kts | 338° |
| 2026-05-05 13:48 | 25.06593 | 51.99246 | 10482 ft | 287 kts | 338° |
| 2026-05-05 13:49 | 25.08451 | 51.98436 | 10285 ft | 286 kts | 338° |
| 2026-05-05 13:49 | 25.10297 | 51.97631 | 10127 ft | 285 kts | 338° |
| 2026-05-05 13:49 | 25.12147 | 51.96823 | 9964 ft | 285 kts | 338° |
| 2026-05-05 13:49 | 25.13986 | 51.96023 | 9809 ft | 284 kts | 338° |
| 2026-05-05 13:50 | 25.15822 | 51.95221 | 9646 ft | 283 kts | 337° |
| 2026-05-05 13:50 | 25.17627 | 51.94430 | 9474 ft | 283 kts | 337° |
| 2026-05-05 13:50 | 25.19453 | 51.93630 | 9296 ft | 283 kts | 337° |
| 2026-05-05 13:50 | 25.21284 | 51.92829 | 9095 ft | 282 kts | 337° |
| 2026-05-05 13:51 | 25.23102 | 51.92032 | 8876 ft | 282 kts | 338° |
| 2026-05-05 13:51 | 25.24922 | 51.91236 | 8656 ft | 281 kts | 338° |
| 2026-05-05 13:51 | 25.26746 | 51.90451 | 8434 ft | 281 kts | 338° |
| 2026-05-05 13:51 | 25.28563 | 51.89679 | 8227 ft | 280 kts | 338° |
| 2026-05-05 13:52 | 25.30382 | 51.88906 | 8004 ft | 279 kts | 338° |
| 2026-05-05 13:52 | 25.32167 | 51.88145 | 7788 ft | 279 kts | 338° |
| 2026-05-05 13:52 | 25.33882 | 51.87161 | 7577 ft | 279 kts | 324° |
| 2026-05-05 13:52 | 25.35120 | 51.85542 | 7355 ft | 275 kts | 298° |
| 2026-05-05 13:53 | 25.35562 | 51.83531 | 7144 ft | 269 kts | 273° |
| 2026-05-05 13:53 | 25.35234 | 51.81528 | 6930 ft | 263 kts | 254° |
| 2026-05-05 13:53 | 25.34606 | 51.79659 | 6701 ft | 257 kts | 251° |
| 2026-05-05 13:53 | 25.33949 | 51.77836 | 6498 ft | 254 kts | 251° |
| 2026-05-05 13:54 | 25.33300 | 51.76019 | 6228 ft | 253 kts | 251° |
| 2026-05-05 13:54 | 25.32630 | 51.74252 | 5980 ft | 254 kts | 245° |
| 2026-05-05 13:54 | 25.31574 | 51.72687 | 5745 ft | 256 kts | 224° |
| 2026-05-05 13:54 | 25.30042 | 51.71696 | 5514 ft | 257 kts | 199° |
| 2026-05-05 13:55 | 25.28276 | 51.71484 | 5277 ft | 256 kts | 174° |
| 2026-05-05 13:55 | 25.26563 | 51.71985 | 5038 ft | 255 kts | 159° |
| 2026-05-05 13:55 | 25.24925 | 51.72716 | 4815 ft | 254 kts | 156° |
| 2026-05-05 13:55 | 25.23295 | 51.73469 | 4578 ft | 253 kts | 156° |
| 2026-05-05 13:56 | 25.21675 | 51.74210 | 4333 ft | 252 kts | 157° |
| 2026-05-05 13:56 | 25.20052 | 51.74937 | 4096 ft | 251 kts | 158° |
| 2026-05-05 13:56 | 25.18455 | 51.75647 | 3875 ft | 251 kts | 157° |
| 2026-05-05 13:56 | 25.16811 | 51.76375 | 3644 ft | 256 kts | 158° |
| 2026-05-05 13:57 | 25.15172 | 51.77094 | 3400 ft | 250 kts | 158° |
| 2026-05-05 13:57 | 25.13564 | 51.77801 | 3170 ft | 247 kts | 158° |
| 2026-05-05 13:57 | 25.11981 | 51.78499 | 2949 ft | 241 kts | 158° |
| 2026-05-05 13:57 | 25.10448 | 51.79170 | 2728 ft | 236 kts | 158° |
| 2026-05-05 13:58 | 25.08888 | 51.79746 | 2536 ft | 237 kts | 167° |
| 2026-05-05 13:58 | 25.07250 | 51.79671 | 2496 ft | 239 kts | 197° |
| 2026-05-05 13:58 | 25.05888 | 51.78704 | 2499 ft | 237 kts | 228° |
| 2026-05-05 13:58 | 25.05064 | 51.77154 | 2494 ft | 233 kts | 247° |
| 2026-05-05 13:59 | 25.04306 | 51.73744 | 2501 ft | 229 kts | 277° |
| 2026-05-05 13:59 | 25.04879 | 51.72181 | 2492 ft | 213 kts | 308° |
| 2026-05-05 14:00 | 25.06936 | 51.70765 | 2470 ft | 145 kts | 340° |
| 2026-05-05 14:00 | 25.07821 | 51.70444 | 2472 ft | 127 kts | 343° |
| 2026-05-05 14:00 | 25.08641 | 51.70123 | 2490 ft | 125 kts | 341° |
| 2026-05-05 14:00 | 25.09449 | 51.69764 | 2496 ft | 125 kts | 339° |
| 2026-05-05 14:01 | 25.10256 | 51.69402 | 2492 ft | 125 kts | 340° |
| 2026-05-05 14:01 | 25.11057 | 51.69051 | 2493 ft | 125 kts | 340° |
| 2026-05-05 14:01 | 25.11867 | 51.68701 | 2493 ft | 125 kts | 340° |
| 2026-05-05 14:01 | 25.12678 | 51.68350 | 2495 ft | 125 kts | 340° |
| 2026-05-05 14:02 | 25.13493 | 51.67998 | 2409 ft | 127 kts | 340° |
| 2026-05-05 14:02 | 25.14316 | 51.67636 | 2262 ft | 127 kts | 339° |
| 2026-05-05 14:02 | 25.15134 | 51.67274 | 2104 ft | 126 kts | 339° |
| 2026-05-05 14:02 | 25.15944 | 51.66914 | 1934 ft | 125 kts | 340° |
| 2026-05-05 14:03 | 25.16745 | 51.66563 | 1773 ft | 125 kts | 340° |
| 2026-05-05 14:03 | 25.17551 | 51.66210 | 1626 ft | 124 kts | 340° |
| 2026-05-05 14:03 | 25.18353 | 51.65856 | 1471 ft | 125 kts | 339° |
| 2026-05-05 14:03 | 25.19158 | 51.65500 | 1326 ft | 125 kts | 339° |
| 2026-05-05 14:04 | 25.19960 | 51.65146 | 1152 ft | 124 kts | 340° |
| 2026-05-05 14:04 | 25.20760 | 51.64794 | 1005 ft | 124 kts | 340° |
| 2026-05-05 14:04 | 25.21556 | 51.64440 | 856 ft | 123 kts | 340° |
| 2026-05-05 14:04 | 25.22347 | 51.64082 | 713 ft | 123 kts | 340° |
| 2026-05-05 14:05 | 25.23130 | 51.63726 | 586 ft | 124 kts | 340° |
| 2026-05-05 14:05 | 25.23940 | 51.63363 | 398 ft | 124 kts | 341° |
| 2026-05-05 14:05 | 25.24704 | 51.63028 | 278 ft | 117 kts | 341° |
| 2026-05-05 14:05 | 25.25453 | 51.62702 | 94 ft | 115 kts | 342° |
| 2026-05-05 14:06 | 25.26189 | 51.62392 | 30 ft | 107 kts | 341° |
| 2026-05-05 14:06 | 25.26807 | 51.62130 | 29 ft | 83 kts | 337° |
| 2026-05-05 14:06 | 25.27224 | 51.61941 | 28 ft | 29 kts | 337° |
| 2026-05-05 14:06 | 25.27359 | 51.61852 | 29 ft | 23 kts | 321° |
| 2026-05-05 14:07 | 25.27470 | 51.61717 | 29 ft | 25 kts | 309° |
| 2026-05-05 14:07 | 25.27517 | 51.61651 | 29 ft | 0 kts | 308° |
| 2026-05-05 14:08 | 25.27529 | 51.61634 | 28 ft | 6 kts | 308° |
| 2026-05-05 14:08 | 25.27552 | 51.61581 | 28 ft | 10 kts | 279° |
| 2026-05-05 14:08 | 25.27535 | 51.61499 | 28 ft | 12 kts | 245° |
| 2026-05-05 14:08 | 25.27491 | 51.61398 | 28 ft | 17 kts | 245° |
| 2026-05-05 14:09 | 25.27444 | 51.61271 | 28 ft | 7 kts | 249° |
| 2026-05-05 14:09 | 25.27433 | 51.61239 | 28 ft | 11 kts | 249° |
| 2026-05-05 14:09 | 25.27399 | 51.61144 | 28 ft | 16 kts | 248° |
| 2026-05-05 14:09 | 25.27357 | 51.61027 | 28 ft | 18 kts | 248° |
| 2026-05-05 14:10 | 25.27303 | 51.60879 | 28 ft | 23 kts | 248° |
| 2026-05-05 14:10 | 25.27253 | 51.60739 | 28 ft | 17 kts | 249° |
| 2026-05-05 14:10 | 25.27213 | 51.60625 | 28 ft | 18 kts | 248° |
| 2026-05-05 14:10 | 25.27169 | 51.60506 | 28 ft | 15 kts | 248° |
| 2026-05-05 14:11 | 25.27139 | 51.60425 | 28 ft | 13 kts | 248° |
| 2026-05-05 14:11 | 25.27099 | 51.60316 | 28 ft | 18 kts | 248° |
| 2026-05-05 14:11 | 25.27068 | 51.60234 | 28 ft | 13 kts | 240° |
| 2026-05-05 14:11 | 25.27025 | 51.60207 | 28 ft | 7 kts | 183° |
| 2026-05-05 14:12 | 25.26965 | 51.60225 | 28 ft | 11 kts | 158° |
| 2026-05-05 14:12 | 25.26876 | 51.60265 | 28 ft | 16 kts | 157° |
| 2026-05-05 14:12 | 25.26775 | 51.60310 | 28 ft | 17 kts | 159° |
| 2026-05-05 14:12 | 25.26680 | 51.60351 | 28 ft | 13 kts | 159° |
| 2026-05-05 14:13 | 25.26623 | 51.60413 | 28 ft | 9 kts | 89° |
| 2026-05-05 14:13 | 25.26648 | 51.60490 | 28 ft | 13 kts | 69° |
| 2026-05-05 14:13 | 25.26684 | 51.60597 | 28 ft | 17 kts | 72° |
| 2026-05-05 14:13 | 25.26657 | 51.60723 | 28 ft | 19 kts | 113° |
| 2026-05-05 14:14 | 25.26618 | 51.60823 | 28 ft | 0 kts | 112° |
| 2026-05-05 14:14 | 25.26616 | 51.60828 | 28 ft | 2 kts | 112° |
| 2026-05-05 14:14 | 25.26607 | 51.60853 | 28 ft | 2 kts | 112° |
| 2026-05-05 14:14 | 25.26608 | 51.60866 | 28 ft | 2 kts | 80° |
| 2026-05-05 14:15 | 25.26612 | 51.60870 | 28 ft | 1 kts | 53° |
| 2026-05-05 14:15 | 25.26614 | 51.60872 | 28 ft | 0 kts | 43° |
| 2026-05-05 14:15 | 25.26617 | 51.60873 | 28 ft | 1 kts | 36° |
| 2026-05-05 14:15 | 25.26631 | 51.60882 | 28 ft | 4 kts | 27° |
| 2026-05-05 14:16 | 25.26663 | 51.60899 | 28 ft | 4 kts | 24° |
| 2026-05-05 14:16 | 25.26684 | 51.60909 | 28 ft | 0 kts | 24° |
| 2026-05-05 14:18 | 25.28714 | 52.78937 | 20677 ft | 403 kts | 261° |
| 2026-05-05 14:18 | 25.28239 | 52.76093 | 20813 ft | 354 kts | 260° |
| 2026-05-05 14:19 | 25.28267 | 52.76290 | 20446 ft | 394 kts | 260° |
| 2026-05-05 14:19 | 25.04617 | 51.75913 | 2430 ft | 218 kts | 251° |
| 2026-05-05 14:19 | 25.04724 | 51.76238 | 2498 ft | 232 kts | 249° |
| 2026-05-05 14:19 | 25.04299 | 51.74533 | 2492 ft | 232 kts | 265° |
| 2026-05-05 14:20 | 25.17960 | 51.66030 | 1555 ft | 124 kts | 339° |
| 2026-05-05 14:20 | 25.18597 | 51.65748 | 1426 ft | 125 kts | 339° |
| 2026-05-05 14:20 | 25.19404 | 51.65391 | 1273 ft | 124 kts | 339° |
| 2026-05-05 14:20 | 25.20204 | 51.65039 | 1100 ft | 123 kts | 340° |
| 2026-05-05 14:21 | 25.20332 | 51.64983 | 1080 ft | 102 kts | 340° |